This is the latest recevied weather packets stored in our database for station/object OSTR-WX. If no packets are shown the sender has not sent any weather packets the latest 10 day(s).
| Time | Temp. | Humidity | Pressure | Rain* | Wind** | Luminosity | Snow |
|---|---|---|---|---|---|---|---|
| 1777449174 | 8.33° C | 59% | 1027.7 hPa | - | - | - | - |
| 1777448218 | 7.78° C | 57% | 1027.7 hPa | - | - | - | - |
| 1777447261 | 7.22° C | 61% | 1027.5 hPa | - | - | - | - |
| 1777446304 | 6.67° C | 62% | 1027.4 hPa | - | - | - | - |
| 1777445349 | 5.56° C | 66% | 1027.4 hPa | - | - | - | - |
| 1777444392 | 5.56° C | 69% | 1027.3 hPa | - | - | - | - |
| 1777443435 | 5.56° C | 70% | 1027.2 hPa | - | - | - | - |
| 1777442477 | 5° C | 72% | 1027.2 hPa | - | - | - | - |
| 1777441526 | 4.44° C | 74% | 1027.1 hPa | - | - | - | - |
| 1777441520 | 4.44° C | 74% | 1027.1 hPa | - | - | - | - |
| 1777440571 | 3.33° C | 78% | 1027.1 hPa | - | - | - | - |
| 1777440562 | 3.33° C | 78% | 1027.1 hPa | - | - | - | - |
| 1777439605 | 2.22° C | 81% | 1027.1 hPa | - | - | - | - |
| 1777438649 | 1.67° C | 83% | 1027.2 hPa | - | - | - | - |
| 1777437692 | 1.11° C | 84% | 1027 hPa | - | - | - | - |
| 1777435784 | -0.56° C | 86% | 1027.1 hPa | - | - | - | - |
| 1777435778 | -0.56° C | 86% | 1027.1 hPa | - | - | - | - |
| 1777434821 | -1.11° C | 87% | 1027.2 hPa | - | - | - | - |
| 1777433865 | -1.67° C | 88% | 1027.3 hPa | - | - | - | - |
| 1777430999 | -2.22° C | 86% | 1027.4 hPa | - | - | - | - |
| 1777430035 | -2.22° C | 86% | 1027.5 hPa | - | - | - | - |
| 1777428122 | -2.22° C | 83% | 1027.4 hPa | - | - | - | - |
| 1777424301 | -1.67° C | 81% | 1026.9 hPa | - | - | - | - |
| 1777422380 | -1.67° C | 82% | 1027 hPa | - | - | - | - |
| 1777413773 | 1.11° C | 75% | 1026.8 hPa | - | - | - | - |
* Rain since midnight (hover to see other rain measurements)
** Current wind speed in m/s (hover to see current wind gust speed)